Time;durP1;ratioP1;P1;durP2;ratioP2;P2;SDS_P1;SDS_P2;PMS_P1;PMS_P2;Temp;Humidity;BMP_temperature;BMP_pressure;BME280_temperature;BME280_humidity;BME280_pressure;Samples;Min_cycle;Max_cycle;Signal;HPM_P1;HPM_P2
2023/10/26 00:00:25;;;;;;;9.95;7.45;;;12.40;99.90;;;;;;5005707;28;20037;-66
2023/10/26 00:02:52;;;;;;;16.88;7.05;;;12.40;99.90;;;;;;5005683;28;20034;-66
2023/10/26 00:05:18;;;;;;;14.25;7.25;;;12.40;99.90;;;;;;5007365;28;20030;-66
2023/10/26 00:07:44;;;;;;;10.18;7.28;;;12.40;99.90;;;;;;5007012;28;20489;-66
2023/10/26 00:10:10;;;;;;;10.25;6.85;;;12.40;99.90;;;;;;5007113;28;20034;-66
2023/10/26 00:12:35;;;;;;;10.90;6.60;;;12.30;99.90;;;;;;5004907;28;20496;-66
2023/10/26 00:15:02;;;;;;;9.27;6.47;;;12.30;99.90;;;;;;5004732;28;20211;-66
2023/10/26 00:17:28;;;;;;;9.00;6.30;;;12.30;99.90;;;;;;5007250;28;20030;-67
2023/10/26 00:19:53;;;;;;;8.82;7.30;;;12.40;99.90;;;;;;5006607;28;20041;-66
2023/10/26 00:22:22;;;;;;;10.18;6.95;;;12.40;99.90;;;;;;5007088;28;20040;-67
2023/10/26 00:24:49;;;;;;;9.20;6.32;;;12.40;99.90;;;;;;5006879;28;20042;-67
2023/10/26 00:27:15;;;;;;;8.88;6.50;;;12.40;99.90;;;;;;5006626;28;20033;-67
2023/10/26 00:29:41;;;;;;;10.00;6.97;;;12.40;99.90;;;;;;5006806;28;20032;-67
2023/10/26 00:32:07;;;;;;;8.68;6.45;;;12.40;99.90;;;;;;5005025;28;20030;-67
2023/10/26 00:34:34;;;;;;;9.65;6.78;;;12.40;99.90;;;;;;5006534;28;20084;-67
2023/10/26 00:36:59;;;;;;;9.48;6.95;;;12.40;99.90;;;;;;5006597;28;20061;-67
2023/10/26 00:39:25;;;;;;;9.38;6.65;;;12.40;99.90;;;;;;5006468;28;20065;-67
2023/10/26 00:41:52;;;;;;;6.93;5.50;;;12.30;99.90;;;;;;5004945;28;20062;-67
2023/10/26 00:44:19;;;;;;;8.30;6.15;;;12.30;99.90;;;;;;4997590;28;20033;-69
2023/10/26 00:46:45;;;;;;;6.63;5.68;;;12.30;99.90;;;;;;5004812;28;20037;-66
2023/10/26 00:49:15;;;;;;;9.85;5.72;;;12.20;99.90;;;;;;5004767;28;20561;-67
2023/10/26 00:51:44;;;;;;;8.70;6.30;;;12.20;99.90;;;;;;4996757;28;20439;-67
2023/10/26 00:54:10;;;;;;;8.70;6.15;;;12.20;99.90;;;;;;5004586;28;20025;-66
2023/10/26 00:56:37;;;;;;;8.68;6.72;;;12.20;99.90;;;;;;5004895;28;20056;-67
2023/10/26 00:59:04;;;;;;;8.35;5.85;;;12.20;99.90;;;;;;5006631;28;20505;-67
2023/10/26 01:01:30;;;;;;;8.88;6.18;;;12.20;99.90;;;;;;5006485;28;20030;-67
2023/10/26 01:03:56;;;;;;;7.60;6.30;;;12.20;99.90;;;;;;5006114;28;20756;-67
2023/10/26 01:06:23;;;;;;;10.27;6.47;;;12.20;99.90;;;;;;5004985;28;20041;-67
2023/10/26 01:08:49;;;;;;;10.50;6.45;;;12.30;99.90;;;;;;5004721;28;20034;-66
2023/10/26 01:11:15;;;;;;;7.55;5.93;;;12.30;99.90;;;;;;5004561;28;20071;-66
2023/10/26 01:13:41;;;;;;;7.55;5.82;;;12.30;99.90;;;;;;5004311;28;20037;-67
2023/10/26 01:16:07;;;;;;;6.82;5.75;;;12.30;99.90;;;;;;5004419;28;20145;-67
2023/10/26 01:18:33;;;;;;;7.32;6.15;;;12.20;99.90;;;;;;5004458;28;20506;-68
2023/10/26 01:20:59;;;;;;;7.82;6.45;;;12.20;99.90;;;;;;5003996;28;20045;-66
2023/10/26 01:23:25;;;;;;;8.20;5.43;;;12.30;99.90;;;;;;5004012;28;20033;-66
2023/10/26 01:25:55;;;;;;;8.15;5.63;;;12.30;99.90;;;;;;5005810;28;20521;-67
2023/10/26 01:28:23;;;;;;;6.90;5.60;;;12.30;99.90;;;;;;4996609;28;20025;-67
2023/10/26 01:30:49;;;;;;;6.60;5.47;;;12.30;99.90;;;;;;5005962;28;20026;-67
2023/10/26 01:33:15;;;;;;;7.65;5.82;;;12.30;99.90;;;;;;5005753;28;20759;-67
2023/10/26 01:35:44;;;;;;;8.13;6.35;;;12.30;99.90;;;;;;5005646;28;20033;-66
2023/10/26 01:38:10;;;;;;;8.13;6.15;;;12.30;99.90;;;;;;5001700;28;20031;-67
2023/10/26 01:40:36;;;;;;;7.78;6.40;;;12.30;99.90;;;;;;5001070;28;20030;-67
2023/10/26 01:43:01;;;;;;;7.85;6.35;;;12.30;99.90;;;;;;5005198;28;20449;-66
2023/10/26 01:45:27;;;;;;;7.00;5.72;;;12.30;99.90;;;;;;5004124;28;20036;-66
2023/10/26 01:47:54;;;;;;;7.95;5.55;;;12.40;99.90;;;;;;5005782;28;20048;-67
2023/10/26 01:50:20;;;;;;;7.75;6.00;;;12.30;99.90;;;;;;5003965;28;20032;-67
2023/10/26 01:52:46;;;;;;;9.35;6.07;;;12.30;99.90;;;;;;5005556;28;20037;-66
2023/10/26 01:55:12;;;;;;;8.85;6.28;;;12.30;99.90;;;;;;5005358;28;20477;-67
2023/10/26 01:57:38;;;;;;;7.55;5.90;;;12.30;99.90;;;;;;5004105;28;20391;-67
2023/10/26 02:00:05;;;;;;;7.53;5.60;;;12.20;99.90;;;;;;5003567;28;20030;-67
2023/10/26 02:02:37;;;;;;;9.43;5.60;;;12.20;99.90;;;;;;5004704;28;20033;-67
2023/10/26 02:05:04;;;;;;;7.57;5.53;;;12.30;99.90;;;;;;5036350;28;20038;-67
2023/10/26 02:07:30;;;;;;;6.20;5.13;;;12.30;99.90;;;;;;5003422;28;20083;-67
2023/10/26 02:09:57;;;;;;;8.52;5.40;;;12.30;99.90;;;;;;5005099;28;20022;-67
2023/10/26 02:12:24;;;;;;;9.20;4.93;;;12.30;99.90;;;;;;5003438;28;20108;-67
2023/10/26 02:14:50;;;;;;;7.25;5.20;;;12.30;99.90;;;;;;5004936;28;20672;-67
2023/10/26 02:17:16;;;;;;;7.75;4.93;;;12.30;99.90;;;;;;5003049;28;20080;-67
2023/10/26 02:19:42;;;;;;;6.80;5.32;;;12.40;99.90;;;;;;5003460;28;20061;-67
2023/10/26 02:22:08;;;;;;;6.95;5.40;;;12.40;99.90;;;;;;5003350;28;20873;-67
2023/10/26 02:24:34;;;;;;;8.85;5.32;;;12.40;99.90;;;;;;5036463;28;20493;-67
2023/10/26 02:26:59;;;;;;;6.90;5.15;;;12.40;99.90;;;;;;5035223;28;20030;-68
2023/10/26 02:29:25;;;;;;;8.38;5.10;;;12.40;99.90;;;;;;5003384;28;20061;-68
2023/10/26 02:31:51;;;;;;;6.75;5.03;;;12.30;99.90;;;;;;5004901;28;20034;-67
2023/10/26 02:34:17;;;;;;;5.32;4.25;;;12.30;99.90;;;;;;5005015;28;20113;-67
2023/10/26 02:36:43;;;;;;;6.35;4.85;;;12.30;99.90;;;;;;5003380;28;20041;-67
2023/10/26 02:39:08;;;;;;;8.13;5.20;;;12.30;99.90;;;;;;5003340;28;20026;-66
2023/10/26 02:41:34;;;;;;;8.45;5.72;;;12.30;99.90;;;;;;5003292;28;20437;-67
2023/10/26 02:44:00;;;;;;;7.93;5.43;;;12.30;99.90;;;;;;5004365;28;20036;-66
2023/10/26 02:46:26;;;;;;;7.00;5.28;;;12.30;99.90;;;;;;5004793;28;20672;-66
2023/10/26 02:48:52;;;;;;;9.25;5.93;;;12.20;99.90;;;;;;5002983;28;20037;-67
2023/10/26 02:51:18;;;;;;;7.10;5.00;;;12.20;99.90;;;;;;5003290;28;20029;-67
2023/10/26 02:53:44;;;;;;;7.82;4.88;;;12.20;99.90;;;;;;5035932;28;20026;-67
2023/10/26 02:56:10;;;;;;;5.75;4.38;;;12.20;99.90;;;;;;5003006;28;20045;-67
2023/10/26 02:58:37;;;;;;;7.35;5.90;;;12.20;99.90;;;;;;5004671;28;20461;-68
2023/10/26 03:01:03;;;;;;;6.38;4.57;;;12.30;99.90;;;;;;5004667;28;20064;-66
2023/10/26 03:03:28;;;;;;;6.07;4.90;;;12.20;99.90;;;;;;5004568;28;20513;-67
2023/10/26 03:05:58;;;;;;;8.20;4.60;;;12.20;99.90;;;;;;5003160;28;20034;-66
2023/10/26 03:08:24;;;;;;;7.50;4.72;;;12.30;99.90;;;;;;5003173;28;20084;-67
2023/10/26 03:10:50;;;;;;;6.03;4.60;;;12.30;99.90;;;;;;5004534;28;20453;-67
2023/10/26 03:13:16;;;;;;;8.27;5.25;;;12.30;99.90;;;;;;5004479;28;20038;-67
2023/10/26 03:15:41;;;;;;;7.18;5.30;;;12.30;99.90;;;;;;5004805;28;20398;-67
2023/10/26 03:18:07;;;;;;;7.28;4.80;;;12.40;99.90;;;;;;5006734;28;20034;-67
2023/10/26 03:20:34;;;;;;;7.47;4.93;;;12.40;99.90;;;;;;5008249;28;20041;-67
2023/10/26 03:22:59;;;;;;;6.50;4.45;;;12.40;99.90;;;;;;5007990;28;20034;-66
2023/10/26 03:25:25;;;;;;;5.60;4.28;;;12.40;99.90;;;;;;5006320;28;20022;-67
2023/10/26 03:27:51;;;;;;;5.35;4.22;;;12.40;99.90;;;;;;5007583;28;20124;-67
2023/10/26 03:30:17;;;;;;;6.60;4.88;;;12.40;99.90;;;;;;5003151;28;20022;-67
2023/10/26 03:32:45;;;;;;;4.57;3.80;;;12.50;99.90;;;;;;5007569;28;20505;-67
2023/10/26 03:35:10;;;;;;;6.03;4.43;;;12.40;99.90;;;;;;5007490;28;20049;-66
2023/10/26 03:37:36;;;;;;;6.97;4.68;;;12.50;99.90;;;;;;5006481;28;20045;-67
2023/10/26 03:40:06;;;;;;;5.93;4.38;;;12.40;99.90;;;;;;5007641;28;20038;-67
2023/10/26 03:42:34;;;;;;;5.10;3.92;;;12.40;99.90;;;;;;5007653;28;20711;-66
2023/10/26 03:45:00;;;;;;;5.78;4.07;;;12.40;99.90;;;;;;5005958;28;20080;-67
2023/10/26 03:47:25;;;;;;;5.40;4.07;;;12.40;99.90;;;;;;5001224;28;20530;-66
2023/10/26 03:49:52;;;;;;;5.22;4.30;;;12.40;99.90;;;;;;5005990;28;20057;-67
2023/10/26 03:52:24;;;;;;;5.32;4.13;;;12.40;99.90;;;;;;5007495;28;20029;-67
2023/10/26 03:54:50;;;;;;;5.60;4.30;;;12.40;99.90;;;;;;5007613;28;20030;-67
2023/10/26 03:57:16;;;;;;;5.93;4.47;;;12.40;99.90;;;;;;5007210;28;20478;-66
2023/10/26 03:59:42;;;;;;;10.95;4.90;;;12.40;99.90;;;;;;5006184;28;20037;-67
2023/10/26 04:02:08;;;;;;;7.20;5.13;;;12.40;99.90;;;;;;5007291;28;20038;-66
2023/10/26 04:04:34;;;;;;;7.28;4.45;;;12.40;99.90;;;;;;5007001;28;20026;-66
2023/10/26 04:07:00;;;;;;;7.60;4.88;;;12.40;99.90;;;;;;5007587;28;20076;-67
2023/10/26 04:09:25;;;;;;;7.40;5.10;;;12.40;99.90;;;;;;5007163;28;20033;-67
2023/10/26 04:11:51;;;;;;;6.88;5.10;;;12.40;99.90;;;;;;5007056;28;20478;-66
2023/10/26 04:14:17;;;;;;;6.38;4.55;;;12.40;99.90;;;;;;5006739;28;20492;-67
2023/10/26 04:16:47;;;;;;;6.25;4.28;;;12.40;99.90;;;;;;5007046;28;20095;-67
2023/10/26 04:19:14;;;;;;;6.38;4.57;;;12.40;99.90;;;;;;5006888;28;20655;-67
2023/10/26 04:21:40;;;;;;;6.28;4.45;;;12.40;99.90;;;;;;5007341;28;20038;-67
2023/10/26 04:24:06;;;;;;;8.48;5.90;;;12.40;99.90;;;;;;5006488;28;20037;-66
2023/10/26 04:26:32;;;;;;;7.05;5.40;;;12.40;99.90;;;;;;5012603;28;20040;-67
2023/10/26 04:28:58;;;;;;;9.07;5.13;;;12.40;99.90;;;;;;5007060;28;20034;-67
2023/10/26 04:31:25;;;;;;;9.13;6.68;;;12.40;99.90;;;;;;5006948;28;20033;-66
2023/10/26 04:33:51;;;;;;;9.85;6.70;;;12.40;99.90;;;;;;5006673;28;20022;-67
2023/10/26 04:36:21;;;;;;;10.30;5.22;;;12.40;99.90;;;;;;5007141;28;20433;-67
2023/10/26 04:38:47;;;;;;;8.00;5.82;;;12.40;99.90;;;;;;5007450;28;20064;-67
2023/10/26 04:41:12;;;;;;;8.55;6.13;;;12.40;99.90;;;;;;5006409;28;20042;-67
2023/10/26 04:43:38;;;;;;;8.30;5.65;;;12.30;99.90;;;;;;5006699;28;20410;-67
2023/10/26 04:46:04;;;;;;;8.65;6.07;;;12.30;99.90;;;;;;5006917;28;20096;-66
2023/10/26 04:48:30;;;;;;;9.85;6.28;;;12.30;99.90;;;;;;5006484;28;20386;-67
2023/10/26 04:50:56;;;;;;;7.82;6.05;;;12.30;99.90;;;;;;5006478;28;20031;-67
2023/10/26 04:53:22;;;;;;;7.45;5.85;;;12.30;99.90;;;;;;5004112;28;20466;-67
2023/10/26 04:55:47;;;;;;;9.35;6.88;;;12.30;99.90;;;;;;5006538;28;20026;-67
2023/10/26 04:58:13;;;;;;;8.40;6.00;;;12.30;99.90;;;;;;5005715;28;20522;-67
2023/10/26 05:00:39;;;;;;;11.00;7.05;;;12.30;99.90;;;;;;5006085;28;20458;-67
2023/10/26 05:03:05;;;;;;;8.93;6.28;;;12.30;99.90;;;;;;5005409;28;20053;-67
2023/10/26 05:05:31;;;;;;;10.73;6.35;;;12.30;99.90;;;;;;5006308;28;20044;-67
2023/10/26 05:07:57;;;;;;;9.50;6.63;;;12.30;99.90;;;;;;5005791;28;20512;-67
2023/10/26 05:10:23;;;;;;;9.27;6.32;;;12.30;99.90;;;;;;5005996;28;20829;-67
2023/10/26 05:12:48;;;;;;;7.68;5.85;;;12.30;99.90;;;;;;5004350;28;20042;-67
2023/10/26 05:15:14;;;;;;;8.20;6.07;;;12.30;99.90;;;;;;5006071;28;20085;-67
2023/10/26 05:17:40;;;;;;;10.40;6.65;;;12.30;99.90;;;;;;5005715;28;20042;-66
2023/10/26 05:20:07;;;;;;;9.23;5.57;;;12.30;99.90;;;;;;5005793;28;20057;-66
2023/10/26 05:22:32;;;;;;;10.65;6.07;;;12.40;99.90;;;;;;5006242;28;20742;-67
2023/10/26 05:25:00;;;;;;;9.50;5.68;;;12.40;99.90;;;;;;5005888;28;20041;-67
2023/10/26 05:27:26;;;;;;;8.13;5.97;;;12.40;99.90;;;;;;5005878;28;20026;-67
2023/10/26 05:29:52;;;;;;;8.20;5.82;;;12.30;99.90;;;;;;5006221;28;20029;-66
2023/10/26 05:32:18;;;;;;;9.18;6.03;;;12.30;99.90;;;;;;5005747;28;20022;-67
2023/10/26 05:34:44;;;;;;;8.20;6.05;;;12.40;99.90;;;;;;5005557;28;20501;-67
2023/10/26 05:37:10;;;;;;;7.47;5.55;;;12.30;99.90;;;;;;5004070;28;20727;-67
2023/10/26 05:39:35;;;;;;;8.05;5.70;;;12.30;99.90;;;;;;5005160;28;20095;-67
2023/10/26 05:42:04;;;;;;;5.88;4.55;;;12.30;99.90;;;;;;5011441;28;20633;-67
2023/10/26 05:44:30;;;;;;;9.90;6.18;;;12.40;99.90;;;;;;5003465;28;20040;-66
2023/10/26 05:46:56;;;;;;;8.70;5.50;;;12.40;99.90;;;;;;5005548;28;20041;-68
2023/10/26 05:49:22;;;;;;;8.63;6.05;;;12.30;99.90;;;;;;5005415;28;20037;-67
2023/10/26 05:51:48;;;;;;;7.30;5.75;;;12.30;99.90;;;;;;5003833;28;20073;-66
2023/10/26 05:54:13;;;;;;;9.82;5.47;;;12.30;99.90;;;;;;5010196;28;20037;-67
2023/10/26 05:56:39;;;;;;;8.40;5.32;;;12.30;99.90;;;;;;5005441;28;20080;-67
2023/10/26 05:59:05;;;;;;;6.15;4.28;;;12.30;99.90;;;;;;5005460;28;20058;-66
2023/10/26 06:01:31;;;;;;;7.20;4.93;;;12.30;99.90;;;;;;5004804;28;20546;-67
2023/10/26 06:03:56;;;;;;;8.02;5.95;;;12.30;99.90;;;;;;5004991;28;20045;-67
2023/10/26 06:06:22;;;;;;;6.57;4.90;;;12.30;99.90;;;;;;5005406;28;20029;-67
2023/10/26 06:08:48;;;;;;;9.63;5.63;;;12.20;99.90;;;;;;5003999;28;20022;-67
2023/10/26 06:11:16;;;;;;;7.85;5.57;;;12.20;99.90;;;;;;5001169;28;20037;-66
2023/10/26 06:13:42;;;;;;;7.05;5.22;;;12.30;99.90;;;;;;5003643;28;20037;-66
2023/10/26 06:16:12;;;;;;;7.35;4.95;;;12.30;99.90;;;;;;5005067;28;20120;-67
2023/10/26 06:18:39;;;;;;;7.55;5.18;;;12.30;99.90;;;;;;5004553;28;20033;-66
2023/10/26 06:21:05;;;;;;;5.60;4.60;;;12.30;99.90;;;;;;5004731;28;20045;-67
2023/10/26 06:23:31;;;;;;;6.10;4.78;;;12.30;99.90;;;;;;5004642;28;20484;-67
2023/10/26 06:26:01;;;;;;;7.90;4.53;;;12.30;99.90;;;;;;5004793;28;20034;-67
2023/10/26 06:28:28;;;;;;;5.97;4.80;;;12.30;99.90;;;;;;4994404;28;20126;-67
2023/10/26 06:30:55;;;;;;;6.72;5.10;;;12.30;99.90;;;;;;5002864;28;20110;-67
2023/10/26 06:33:21;;;;;;;5.72;4.32;;;12.30;99.90;;;;;;5002978;28;20107;-67
2023/10/26 06:35:48;;;;;;;6.07;4.53;;;12.30;99.90;;;;;;5002912;28;20445;-67
2023/10/26 06:38:14;;;;;;;8.50;5.15;;;12.30;99.90;;;;;;5003196;28;20037;-67
2023/10/26 06:40:40;;;;;;;5.47;3.97;;;12.40;99.90;;;;;;5003582;28;20572;-67
2023/10/26 06:43:06;;;;;;;6.68;5.15;;;12.30;99.90;;;;;;5003393;28;20512;-67
2023/10/26 06:45:32;;;;;;;7.10;4.95;;;12.40;99.90;;;;;;5004020;28;20053;-67
2023/10/26 06:47:58;;;;;;;7.05;4.82;;;12.40;99.90;;;;;;5003689;28;20022;-67
2023/10/26 06:50:24;;;;;;;5.70;4.38;;;12.40;99.90;;;;;;5005264;28;20509;-67
2023/10/26 06:52:50;;;;;;;5.85;4.28;;;12.40;99.90;;;;;;5007508;28;20018;-67
2023/10/26 06:55:16;;;;;;;7.00;4.80;;;12.40;99.90;;;;;;5006184;28;20450;-67
2023/10/26 06:57:44;;;;;;;6.45;4.65;;;12.40;99.90;;;;;;5007967;28;20037;-67
2023/10/26 07:00:11;;;;;;;6.80;4.38;;;12.40;99.90;;;;;;5007325;28;20491;-67
2023/10/26 07:02:37;;;;;;;7.72;5.35;;;12.40;99.90;;;;;;5007632;28;20025;-69
2023/10/26 07:05:03;;;;;;;5.55;4.57;;;12.40;99.90;;;;;;5007550;28;20818;-67
2023/10/26 07:07:30;;;;;;;7.43;5.10;;;12.50;99.90;;;;;;5005821;28;20022;-67
2023/10/26 07:09:57;;;;;;;8.68;5.22;;;12.50;99.90;;;;;;5007739;28;20057;-68
2023/10/26 07:12:24;;;;;;;5.90;4.45;;;12.50;99.90;;;;;;5002622;28;20037;-67
2023/10/26 07:14:54;;;;;;;5.82;4.07;;;12.50;99.90;;;;;;5007863;28;20026;-67
2023/10/26 07:17:21;;;;;;;6.45;4.25;;;12.50;99.90;;;;;;5005918;28;20030;-67
2023/10/26 07:19:47;;;;;;;6.35;4.65;;;12.50;99.90;;;;;;5007401;28;20049;-67
2023/10/26 07:22:12;;;;;;;6.07;4.50;;;12.60;99.90;;;;;;5007625;28;20753;-67
2023/10/26 07:24:38;;;;;;;7.18;5.20;;;12.60;99.90;;;;;;5005468;28;20096;-67
2023/10/26 07:27:04;;;;;;;6.03;4.35;;;12.60;99.90;;;;;;5006857;28;20045;-67
2023/10/26 07:29:30;;;;;;;7.60;4.60;;;12.60;99.90;;;;;;5007017;28;20525;-67
2023/10/26 07:31:56;;;;;;;7.20;4.35;;;12.70;99.90;;;;;;5007310;28;20034;-68
2023/10/26 07:34:22;;;;;;;8.27;4.40;;;12.70;99.90;;;;;;5022130;28;20057;-68
2023/10/26 07:36:48;;;;;;;6.75;4.57;;;12.70;99.90;;;;;;5007075;28;20506;-67
2023/10/26 07:39:14;;;;;;;4.25;3.55;;;12.70;99.90;;;;;;5007277;28;20037;-67
2023/10/26 07:41:40;;;;;;;5.43;4.20;;;12.60;99.90;;;;;;5038806;28;20573;-67
2023/10/26 07:44:06;;;;;;;5.70;4.55;;;12.70;99.90;;;;;;5006887;28;20042;-67
2023/10/26 07:46:32;;;;;;;6.93;4.28;;;12.60;99.90;;;;;;5005385;28;20037;-67
2023/10/26 07:48:58;;;;;;;6.78;4.60;;;12.70;99.90;;;;;;5006934;28;20445;-67
2023/10/26 07:51:23;;;;;;;6.38;4.70;;;12.70;99.90;;;;;;5006560;28;20072;-67
2023/10/26 07:53:49;;;;;;;7.75;4.68;;;12.70;99.90;;;;;;5007136;28;20529;-67
2023/10/26 07:56:15;;;;;;;6.78;4.93;;;12.70;99.90;;;;;;5006474;28;20491;-68
2023/10/26 07:58:41;;;;;;;4.95;3.90;;;12.70;99.90;;;;;;5006639;28;20469;-71
2023/10/26 08:01:09;;;;;;;7.35;4.65;;;12.80;99.90;;;;;;5006754;28;20510;-67
2023/10/26 08:03:34;;;;;;;5.80;4.32;;;12.70;99.90;;;;;;5006386;28;20049;-67
2023/10/26 08:06:01;;;;;;;7.15;4.70;;;12.80;99.90;;;;;;5006526;28;20026;-67
2023/10/26 08:08:27;;;;;;;7.40;4.70;;;12.80;99.90;;;;;;5006532;28;20030;-67
2023/10/26 08:10:53;;;;;;;10.55;5.28;;;12.80;99.90;;;;;;5003764;28;20030;-67
2023/10/26 08:13:19;;;;;;;6.40;4.43;;;12.80;99.90;;;;;;5005415;28;20038;-67
2023/10/26 08:15:45;;;;;;;6.03;4.40;;;12.90;99.90;;;;;;5006690;28;20045;-67
2023/10/26 08:18:12;;;;;;;6.68;4.20;;;12.90;99.90;;;;;;5006345;28;20065;-67
2023/10/26 08:20:38;;;;;;;6.20;4.47;;;12.90;99.90;;;;;;5006074;28;20034;-67
2023/10/26 08:23:04;;;;;;;6.38;4.32;;;12.90;99.90;;;;;;5005811;28;20037;-68
2023/10/26 08:25:33;;;;;;;6.65;4.57;;;12.90;99.90;;;;;;5006067;28;20086;-67
2023/10/26 08:27:59;;;;;;;7.40;4.68;;;12.90;99.90;;;;;;5005957;28;20033;-67
2023/10/26 08:30:25;;;;;;;7.38;5.18;;;13.00;99.90;;;;;;5006004;28;20060;-67
2023/10/26 08:32:53;;;;;;;6.68;4.90;;;13.00;99.90;;;;;;5002790;28;20089;-67
2023/10/26 08:35:19;;;;;;;6.82;4.30;;;13.00;99.90;;;;;;5005221;28;20057;-67
2023/10/26 08:37:45;;;;;;;10.25;6.28;;;13.00;99.90;;;;;;5001599;28;20387;-66
2023/10/26 08:40:12;;;;;;;6.45;4.38;;;13.00;99.90;;;;;;4991744;28;20026;-67
2023/10/26 08:42:44;;;;;;;7.13;4.82;;;13.00;99.90;;;;;;5005812;28;20045;-67
2023/10/26 08:45:27;;;;;;;6.28;4.68;;;13.00;99.90;;;;;;5004861;28;20057;-67
2023/10/26 08:47:56;;;;;;;7.47;5.20;;;13.00;99.90;;;;;;5004548;28;20057;-67
2023/10/26 08:50:23;;;;;;;5.78;4.70;;;13.10;99.90;;;;;;5006013;28;20026;-68
2023/10/26 08:52:51;;;;;;;7.30;4.65;;;13.10;99.90;;;;;;5005455;28;20022;-67
2023/10/26 08:55:17;;;;;;;7.60;5.13;;;13.10;99.90;;;;;;5005725;28;20034;-67
2023/10/26 08:57:47;;;;;;;6.72;4.78;;;13.10;99.90;;;;;;5000859;28;20029;-67
2023/10/26 09:00:14;;;;;;;7.43;4.88;;;13.10;99.90;;;;;;5004466;28;20034;-67
2023/10/26 09:02:39;;;;;;;7.40;4.95;;;13.20;99.90;;;;;;5004507;28;20069;-67
2023/10/26 09:05:08;;;;;;;8.55;5.70;;;13.20;99.90;;;;;;5005132;28;20044;-67
2023/10/26 09:07:34;;;;;;;7.75;5.18;;;13.20;99.90;;;;;;5005004;28;20087;-67
2023/10/26 09:10:01;;;;;;;6.60;4.70;;;13.20;99.90;;;;;;5005263;28;20037;-68
2023/10/26 09:12:27;;;;;;;5.88;4.68;;;13.20;99.90;;;;;;5004839;28;20040;-67
2023/10/26 09:15:00;;;;;;;6.80;5.13;;;13.20;99.90;;;;;;5003452;28;20026;-67
2023/10/26 09:17:27;;;;;;;8.57;5.55;;;13.20;99.90;;;;;;4997412;28;20057;-67
2023/10/26 09:19:53;;;;;;;9.43;5.20;;;13.20;99.90;;;;;;5000773;28;20141;-67
2023/10/26 09:22:33;;;;;;;9.18;6.38;;;13.20;99.90;;;;;;5002917;28;20148;-67
2023/10/26 09:25:13;;;;;;;8.05;5.88;;;13.20;99.90;;;;;;5003928;28;20034;-66
2023/10/26 09:27:41;;;;;;;8.70;6.20;;;13.20;99.90;;;;;;5004171;28;20041;-67
2023/10/26 09:30:25;;;;;;;10.07;6.18;;;13.30;99.90;;;;;;4999220;28;20573;-68
2023/10/26 09:32:51;;;;;;;9.40;6.07;;;13.30;99.90;;;;;;5000076;28;20033;-68
2023/10/26 09:35:31;;;;;;;9.45;6.28;;;13.30;99.90;;;;;;5002253;28;20053;-66
2023/10/26 09:37:58;;;;;;;9.68;5.78;;;13.30;99.90;;;;;;5001531;28;20180;-66
2023/10/26 09:40:26;;;;;;;10.30;6.00;;;13.30;99.90;;;;;;4998565;28;20486;-67
2023/10/26 09:42:54;;;;;;;10.60;7.00;;;13.30;99.90;;;;;;5000201;28;20088;-67
2023/10/26 09:45:20;;;;;;;14.45;6.43;;;13.30;99.90;;;;;;5002771;28;20100;-67
2023/10/26 09:47:46;;;;;;;9.90;6.53;;;13.40;99.90;;;;;;5003674;28;20911;-68
2023/10/26 09:50:13;;;;;;;8.20;6.00;;;13.40;99.90;;;;;;5004828;28;20032;-67
2023/10/26 09:52:41;;;;;;;7.90;5.72;;;13.30;99.90;;;;;;5003396;28;20494;-68
2023/10/26 09:55:08;;;;;;;7.25;5.32;;;13.30;99.90;;;;;;5004095;28;20041;-68
2023/10/26 09:57:50;;;;;;;12.00;6.88;;;13.30;99.90;;;;;;5001722;28;20033;-67
2023/10/26 10:00:17;;;;;;;8.65;5.95;;;13.30;99.90;;;;;;5002944;28;20037;-69
2023/10/26 10:02:43;;;;;;;7.75;5.57;;;13.30;99.90;;;;;;5001673;28;20038;-69
2023/10/26 10:05:37;;;;;;;8.55;5.95;;;13.30;99.90;;;;;;5002039;28;20042;-69
2023/10/26 10:08:04;;;;;;;8.32;6.00;;;13.30;99.90;;;;;;4993914;28;20033;-69
2023/10/26 10:10:29;;;;;;;9.93;5.93;;;13.30;99.90;;;;;;5003958;28;20038;-69
2023/10/26 10:12:55;;;;;;;8.07;5.72;;;13.30;99.90;;;;;;4999620;28;20038;-65
2023/10/26 10:15:34;;;;;;;10.98;7.32;;;13.30;99.90;;;;;;5003442;28;20046;-69
2023/10/26 10:18:05;;;;;;;9.52;6.30;;;13.40;99.90;;;;;;5004265;28;20037;-68
2023/10/26 10:20:32;;;;;;;10.93;6.60;;;13.40;99.90;;;;;;5004056;28;20040;-68
2023/10/26 10:22:59;;;;;;;7.90;5.20;;;13.50;99.90;;;;;;5003716;28;20030;-68
2023/10/26 10:25:50;;;;;;;8.07;6.00;;;13.50;99.90;;;;;;4995424;28;20105;-68
2023/10/26 10:28:18;;;;;;;11.30;6.78;;;13.50;99.90;;;;;;4996318;28;20773;-68
2023/10/26 10:30:57;;;;;;;8.00;5.80;;;13.50;99.90;;;;;;5003655;28;20172;-69
2023/10/26 10:33:25;;;;;;;10.43;6.43;;;13.50;99.90;;;;;;5003887;28;20518;-68
2023/10/26 10:36:05;;;;;;;10.77;7.40;;;13.60;99.90;;;;;;5004108;28;20037;-70
2023/10/26 10:38:32;;;;;;;10.40;6.53;;;13.60;99.90;;;;;;4996681;28;20080;-68
2023/10/26 10:41:01;;;;;;;7.05;5.53;;;13.60;99.90;;;;;;5003847;28;20037;-68
2023/10/26 10:43:45;;;;;;;9.20;7.25;;;13.60;99.90;;;;;;5027617;28;20532;-68
2023/10/26 10:46:26;;;;;;;8.55;5.80;;;13.60;99.90;;;;;;4999917;28;20403;-68
2023/10/26 10:49:05;;;;;;;8.82;6.43;;;13.70;99.90;;;;;;5004012;28;20026;-68
2023/10/26 10:51:42;;;;;;;7.93;5.40;;;13.70;99.90;;;;;;4988460;28;20064;-68
2023/10/26 10:54:13;;;;;;;12.07;7.35;;;13.70;99.90;;;;;;5003896;28;20026;-69
2023/10/26 10:56:43;;;;;;;8.45;5.63;;;13.70;99.90;;;;;;5003693;28;20030;-69
2023/10/26 10:59:16;;;;;;;7.60;5.75;;;13.70;99.90;;;;;;4999660;28;20112;-69
2023/10/26 11:01:43;;;;;;;6.63;5.53;;;13.70;99.90;;;;;;5003734;28;20040;-69
2023/10/26 11:04:12;;;;;;;8.52;6.28;;;13.70;99.90;;;;;;5003506;28;20049;-64
2023/10/26 11:06:47;;;;;;;9.45;6.03;;;13.70;99.90;;;;;;5001767;28;20034;-69
2023/10/26 11:09:29;;;;;;;8.55;5.97;;;13.70;99.90;;;;;;5004097;28;20038;-69
2023/10/26 11:11:55;;;;;;;7.90;6.25;;;13.70;99.90;;;;;;5003995;28;20037;-69
2023/10/26 11:14:21;;;;;;;6.97;5.60;;;13.70;99.90;;;;;;5003471;28;20782;-69
2023/10/26 11:16:49;;;;;;;8.43;5.80;;;13.80;99.90;;;;;;5003683;28;20040;-69
2023/10/26 11:19:14;;;;;;;8.43;6.15;;;13.80;99.90;;;;;;5003814;28;20033;-69
2023/10/26 11:21:40;;;;;;;8.23;6.13;;;13.70;99.90;;;;;;5003120;28;20092;-69
2023/10/26 11:24:07;;;;;;;8.23;5.38;;;13.80;99.90;;;;;;5003443;28;20042;-69
2023/10/26 11:26:32;;;;;;;8.63;6.10;;;13.80;99.90;;;;;;5003417;28;20375;-69
2023/10/26 11:29:03;;;;;;;7.85;5.85;;;13.80;99.90;;;;;;5003087;28;20041;-69
2023/10/26 11:31:39;;;;;;;7.63;5.43;;;13.70;99.90;;;;;;4994215;28;20469;-69
2023/10/26 11:34:09;;;;;;;8.88;5.65;;;13.70;99.90;;;;;;5002417;28;20037;-69
2023/10/26 11:36:36;;;;;;;6.60;5.25;;;13.70;99.90;;;;;;5003179;28;20124;-69
2023/10/26 11:39:03;;;;;;;7.40;5.32;;;13.80;99.90;;;;;;5006055;28;20045;-69
2023/10/26 11:41:29;;;;;;;7.35;5.30;;;13.70;99.90;;;;;;5006457;28;20346;-69
2023/10/26 11:44:01;;;;;;;11.93;6.60;;;13.80;99.90;;;;;;5005875;28;20034;-69
2023/10/26 11:46:35;;;;;;;8.68;5.88;;;13.80;99.90;;;;;;5006624;28;20398;-69
2023/10/26 11:49:02;;;;;;;8.98;6.65;;;13.80;99.90;;;;;;5006252;28;20132;-69
2023/10/26 11:51:28;;;;;;;11.27;6.47;;;13.80;99.90;;;;;;5006326;28;20096;-68
2023/10/26 11:53:55;;;;;;;8.77;6.65;;;13.90;99.90;;;;;;5008668;28;20025;-69
2023/10/26 11:56:20;;;;;;;8.65;5.95;;;13.90;99.90;;;;;;5006370;28;20389;-68
2023/10/26 11:58:46;;;;;;;9.38;6.30;;;13.90;99.90;;;;;;5005379;28;20041;-69
2023/10/26 12:01:12;;;;;;;9.68;6.22;;;13.90;99.90;;;;;;5006570;28;20061;-69
2023/10/26 12:03:45;;;;;;;6.88;5.65;;;13.90;99.90;;;;;;5006288;28;20482;-66
2023/10/26 12:06:11;;;;;;;9.00;6.15;;;13.90;99.90;;;;;;4998876;28;20080;-65
2023/10/26 12:08:37;;;;;;;7.93;5.65;;;13.90;99.90;;;;;;5002438;28;20133;-64
2023/10/26 12:11:04;;;;;;;9.73;6.68;;;13.90;99.90;;;;;;4995999;28;20503;-65
2023/10/26 12:13:32;;;;;;;7.15;5.43;;;13.80;99.90;;;;;;5001835;28;20582;-65
2023/10/26 12:15:58;;;;;;;8.00;5.72;;;13.80;99.90;;;;;;4995985;28;20855;-65
2023/10/26 12:18:24;;;;;;;8.10;5.88;;;13.80;99.90;;;;;;5002467;28;20553;-63
2023/10/26 12:20:49;;;;;;;7.70;6.10;;;13.80;99.90;;;;;;4996548;28;20035;-63
2023/10/26 12:23:15;;;;;;;8.60;6.43;;;13.80;99.90;;;;;;5001535;28;20065;-65
2023/10/26 12:25:42;;;;;;;8.13;6.28;;;13.80;99.90;;;;;;5000634;28;20045;-63
2023/10/26 12:28:07;;;;;;;10.88;7.70;;;13.70;99.90;;;;;;5001187;28;20045;-63
2023/10/26 12:30:34;;;;;;;8.90;6.35;;;13.80;99.90;;;;;;4999117;28;20030;-64
2023/10/26 12:32:59;;;;;;;9.07;6.50;;;13.80;99.90;;;;;;5000155;28;20117;-63
2023/10/26 12:35:25;;;;;;;10.27;6.78;;;13.80;99.90;;;;;;4999641;28;20113;-64
2023/10/26 12:37:51;;;;;;;8.15;6.18;;;13.70;99.90;;;;;;4999917;28;20034;-64
2023/10/26 12:40:18;;;;;;;8.65;6.18;;;13.70;99.90;;;;;;5002520;28;20689;-63
2023/10/26 12:42:44;;;;;;;11.80;7.40;;;13.80;99.90;;;;;;5001957;28;20375;-64
2023/10/26 12:45:10;;;;;;;10.43;7.32;;;13.80;99.90;;;;;;4997195;28;20030;-64